createdAt,value
2023-03-06T00:00:14.848Z,1.20
2023-03-06T00:02:41.372Z,1.20
2023-03-06T00:05:07.948Z,1.40
2023-03-06T00:07:34.456Z,1.25
2023-03-06T00:10:01.145Z,1.17
2023-03-06T00:12:27.730Z,1.55
2023-03-06T00:14:54.237Z,1.20
2023-03-06T00:17:20.771Z,1.40
2023-03-06T00:19:47.285Z,1.20
2023-03-06T00:22:15.342Z,1.13
2023-03-06T00:24:43.049Z,1.05
2023-03-06T00:27:10.119Z,1.00
2023-03-06T00:29:36.820Z,0.93
2023-03-06T00:32:03.545Z,1.00
2023-03-06T00:34:30.087Z,1.00
2023-03-06T00:36:56.630Z,1.10
2023-03-06T00:39:23.565Z,1.20
2023-03-06T00:41:50.107Z,1.10
2023-03-06T00:44:16.687Z,1.08
2023-03-06T00:46:43.300Z,1.20
2023-03-06T00:49:09.840Z,1.00
2023-03-06T00:51:36.308Z,1.00
2023-03-06T00:54:02.864Z,1.00
2023-03-06T00:56:30.142Z,0.82
2023-03-06T00:58:56.684Z,0.90
2023-03-06T01:01:23.312Z,1.20
2023-03-06T01:03:50.006Z,0.90
2023-03-06T01:06:17.613Z,0.93
2023-03-06T01:08:44.130Z,1.10
2023-03-06T01:11:10.683Z,1.00
2023-03-06T01:13:37.257Z,0.80
2023-03-06T01:16:13.111Z,0.95
2023-03-06T01:18:39.816Z,1.02
2023-03-06T01:21:07.667Z,0.90
2023-03-06T01:23:34.476Z,1.00
2023-03-06T01:26:01.287Z,0.90
2023-03-06T01:28:28.280Z,1.20
2023-03-06T01:30:55.012Z,1.02
2023-03-06T01:33:21.629Z,0.90
2023-03-06T01:35:48.334Z,1.10
2023-03-06T01:38:14.945Z,0.80
2023-03-06T01:40:41.442Z,1.08
2023-03-06T01:43:24.281Z,0.80
2023-03-06T01:45:50.759Z,0.90
2023-03-06T01:48:21.203Z,0.93
2023-03-06T01:50:48.646Z,0.70
2023-03-06T01:53:15.946Z,0.80
2023-03-06T01:55:42.760Z,1.00
2023-03-06T01:58:13.596Z,0.80
2023-03-06T02:00:40.246Z,0.70
2023-03-06T02:03:10.470Z,0.60
2023-03-06T02:05:37.560Z,0.73
2023-03-06T02:08:05.504Z,0.82
2023-03-06T02:10:32.482Z,0.95
2023-03-06T02:12:59.402Z,0.80
2023-03-06T02:15:29.214Z,0.80
2023-03-06T02:17:56.340Z,0.77
2023-03-06T02:20:46.334Z,0.75
2023-03-06T02:23:40.070Z,0.80
2023-03-06T02:26:09.198Z,0.60
2023-03-06T02:28:35.936Z,0.73
2023-03-06T02:31:02.570Z,0.68
2023-03-06T02:33:29.720Z,0.73
2023-03-06T02:35:58.749Z,0.68
2023-03-06T02:38:29.814Z,0.70
2023-03-06T02:40:58.118Z,0.60
2023-03-06T02:43:28.556Z,0.65
2023-03-06T02:45:55.302Z,0.60
2023-03-06T02:48:21.909Z,0.82
2023-03-06T02:50:48.901Z,0.60
2023-03-06T02:53:18.724Z,0.80
2023-03-06T02:55:46.487Z,0.77
2023-03-06T02:58:13.468Z,0.80
2023-03-06T03:00:40.412Z,0.80
2023-03-06T03:03:07.450Z,0.60
2023-03-06T03:05:34.041Z,0.60
2023-03-06T03:08:00.584Z,0.75
2023-03-06T03:10:27.409Z,0.60
2023-03-06T03:12:54.457Z,0.60
2023-03-06T03:15:20.999Z,0.60
2023-03-06T03:17:47.573Z,0.50
2023-03-06T03:20:16.925Z,0.50
2023-03-06T03:22:47.065Z,0.50
2023-03-06T03:25:14.516Z,0.50
2023-03-06T03:27:41.162Z,0.40
2023-03-06T03:30:09.001Z,0.63
2023-03-06T03:32:35.672Z,0.47
2023-03-06T03:35:02.431Z,0.55
2023-03-06T03:37:28.999Z,0.60
2023-03-06T03:39:56.440Z,0.47
2023-03-06T03:42:22.942Z,0.55
2023-03-06T03:44:49.419Z,0.70
2023-03-06T03:47:15.999Z,0.50
2023-03-06T03:49:42.633Z,0.50
2023-03-06T03:52:09.226Z,0.57
2023-03-06T03:54:36.603Z,0.43
2023-03-06T03:57:03.296Z,0.57
2023-03-06T03:59:29.952Z,0.70
2023-03-06T04:01:56.607Z,0.52
2023-03-06T04:04:23.321Z,0.63
2023-03-06T04:06:49.853Z,0.50
2023-03-06T04:09:16.354Z,0.40
2023-03-06T04:11:42.843Z,0.52
2023-03-06T04:14:09.785Z,0.50
2023-03-06T04:16:36.393Z,0.40
2023-03-06T04:19:03.413Z,0.52
2023-03-06T04:21:30.006Z,0.63
2023-03-06T04:23:56.557Z,0.50
2023-03-06T04:26:23.038Z,0.50
2023-03-06T04:28:49.584Z,0.40
2023-03-06T04:31:16.188Z,0.45
2023-03-06T04:33:42.768Z,0.60
2023-03-06T04:36:20.814Z,0.50
2023-03-06T04:38:47.347Z,0.47
2023-03-06T04:41:13.867Z,0.40
2023-03-06T04:43:40.489Z,0.50
2023-03-06T04:46:07.101Z,0.43
2023-03-06T04:48:33.819Z,0.43
2023-03-06T04:51:00.353Z,0.50
2023-03-06T04:53:26.925Z,0.32
2023-03-06T04:55:53.451Z,0.30
2023-03-06T04:58:20.791Z,0.60
2023-03-06T05:00:47.360Z,0.50
2023-03-06T05:03:14.415Z,0.50
2023-03-06T05:05:41.543Z,0.40
2023-03-06T05:08:11.223Z,0.47
2023-03-06T05:10:37.729Z,0.40
2023-03-06T05:13:05.146Z,0.50
2023-03-06T05:15:31.615Z,0.40
2023-03-06T05:17:58.095Z,0.40
2023-03-06T05:20:24.896Z,0.30
2023-03-06T05:22:51.410Z,0.43
2023-03-06T05:25:18.494Z,0.60
2023-03-06T05:27:44.982Z,0.52
2023-03-06T05:30:13.817Z,0.30
2023-03-06T05:32:40.435Z,0.45
2023-03-06T05:35:07.504Z,0.40
2023-03-06T05:37:34.042Z,0.50
2023-03-06T05:40:00.903Z,0.40
2023-03-06T05:42:28.763Z,0.50
2023-03-06T05:44:55.299Z,0.40
2023-03-06T05:47:21.781Z,0.50
2023-03-06T05:49:48.407Z,0.40
2023-03-06T05:52:17.692Z,0.65
2023-03-06T05:54:44.627Z,0.40
2023-03-06T05:57:11.227Z,0.47
2023-03-06T05:59:37.822Z,0.60
2023-03-06T06:02:05.712Z,0.45
2023-03-06T06:04:32.507Z,0.40
2023-03-06T06:07:00.676Z,0.30
2023-03-06T06:09:28.065Z,0.60
2023-03-06T06:11:58.047Z,0.50
2023-03-06T06:14:24.812Z,0.28
2023-03-06T06:16:51.903Z,0.40
2023-03-06T06:19:21.294Z,0.40
2023-03-06T06:21:51.313Z,0.40
2023-03-06T06:24:20.413Z,0.40
2023-03-06T06:26:47.348Z,0.43
2023-03-06T06:29:14.025Z,0.50
2023-03-06T06:31:41.239Z,0.32
2023-03-06T06:34:09.724Z,0.40
2023-03-06T06:36:36.847Z,0.50
2023-03-06T06:39:04.825Z,0.32
2023-03-06T06:41:46.545Z,0.50
2023-03-06T06:44:19.664Z,0.30
2023-03-06T06:49:33.852Z,0.50
2023-03-06T06:52:00.424Z,0.40
2023-03-06T06:54:27.336Z,0.50
2023-03-06T06:56:54.462Z,0.28
2023-03-06T06:59:23.624Z,0.50
2023-03-06T07:01:51.461Z,0.35
2023-03-06T07:04:19.126Z,0.40
2023-03-06T07:06:45.720Z,0.35
2023-03-06T07:09:13.437Z,0.40
2023-03-06T07:11:41.015Z,0.28
2023-03-06T07:14:08.032Z,0.40
2023-03-06T07:16:34.922Z,0.30
2023-03-06T07:19:01.499Z,0.40
2023-03-06T07:21:28.063Z,0.50
2023-03-06T07:23:57.646Z,0.30
2023-03-06T07:26:28.077Z,0.45
2023-03-06T07:28:55.001Z,0.40
2023-03-06T07:31:25.346Z,0.20
2023-03-06T07:33:53.451Z,0.40
2023-03-06T07:36:20.729Z,0.38
2023-03-06T07:38:47.328Z,0.30
2023-03-06T07:41:16.342Z,0.30
2023-03-06T07:43:44.956Z,0.45
2023-03-06T07:46:12.807Z,0.40
2023-03-06T07:48:39.936Z,0.40
2023-03-06T07:51:11.673Z,0.30
2023-03-06T07:53:38.257Z,0.30
2023-03-06T07:56:08.970Z,0.40
2023-03-06T07:58:36.817Z,0.30
2023-03-06T08:01:05.342Z,0.40
2023-03-06T08:03:32.682Z,0.50
2023-03-06T08:06:16.815Z,0.30
2023-03-06T08:08:45.396Z,0.32
2023-03-06T08:11:13.467Z,0.50
2023-03-06T08:13:40.816Z,0.40
2023-03-06T08:16:08.055Z,0.40
2023-03-06T08:18:35.438Z,0.40
2023-03-06T08:21:17.118Z,0.40
2023-03-06T08:23:44.373Z,0.30
2023-03-06T08:26:14.529Z,0.35
2023-03-06T08:28:41.396Z,0.47
2023-03-06T08:31:11.730Z,0.35
2023-03-06T08:33:39.209Z,0.52
2023-03-06T08:36:06.067Z,0.35
2023-03-06T08:38:32.660Z,0.70
2023-03-06T08:40:59.256Z,0.50
2023-03-06T08:43:25.869Z,0.47
2023-03-06T08:45:57.681Z,0.40
2023-03-06T08:48:25.255Z,0.40
2023-03-06T08:50:52.071Z,0.30
2023-03-06T08:53:18.740Z,0.50
2023-03-06T08:55:45.485Z,0.40
2023-03-06T08:58:12.179Z,0.60
2023-03-06T09:00:39.322Z,0.40
2023-03-06T09:03:06.197Z,0.40
2023-03-06T09:05:33.031Z,0.50
2023-03-06T09:07:59.599Z,0.40
2023-03-06T09:10:26.813Z,0.57
2023-03-06T09:12:55.030Z,0.65
2023-03-06T09:15:22.906Z,0.50
2023-03-06T09:17:51.035Z,0.75
2023-03-06T09:20:18.889Z,0.80
2023-03-06T09:22:45.883Z,0.70
2023-03-06T09:25:14.163Z,0.70
2023-03-06T09:27:41.089Z,0.93
2023-03-06T09:30:08.931Z,1.30
2023-03-06T09:32:35.679Z,3.35
2023-03-06T09:35:02.209Z,2.90
2023-03-06T09:37:28.771Z,2.95
2023-03-06T09:39:55.362Z,2.55
2023-03-06T09:42:23.749Z,2.60
2023-03-06T09:45:00.233Z,2.65
2023-03-06T09:47:49.318Z,2.30
2023-03-06T09:50:31.144Z,2.10
2023-03-06T09:53:19.357Z,2.33
2023-03-06T09:55:58.202Z,1.83
2023-03-06T09:58:27.365Z,1.70
2023-03-06T10:00:53.868Z,1.50
2023-03-06T10:03:52.874Z,1.50
2023-03-06T10:06:31.157Z,1.52
2023-03-06T10:09:12.309Z,2.10
2023-03-06T10:11:58.710Z,2.42
2023-03-06T10:14:43.900Z,1.88
2023-03-06T10:17:35.373Z,1.80
2023-03-06T10:20:09.188Z,2.40
2023-03-06T10:22:46.098Z,1.55
2023-03-06T10:25:14.429Z,1.55
2023-03-06T10:27:50.593Z,1.58
2023-03-06T10:30:59.159Z,1.73
2023-03-06T10:33:47.296Z,1.50
2023-03-06T10:36:19.090Z,1.60
2023-03-06T10:38:48.773Z,1.40
2023-03-06T10:41:36.610Z,1.30
2023-03-06T10:44:03.083Z,1.55
2023-03-06T10:46:39.311Z,1.40
2023-03-06T10:49:31.091Z,1.30
2023-03-06T10:52:21.966Z,1.05
2023-03-06T10:54:48.621Z,0.90
2023-03-06T10:57:27.350Z,1.60
2023-03-06T10:59:56.546Z,1.00
2023-03-06T11:02:32.757Z,0.90
2023-03-06T11:05:01.373Z,0.95
2023-03-06T11:07:35.359Z,0.80
2023-03-06T11:10:18.174Z,1.10
2023-03-06T11:12:57.483Z,0.73
2023-03-06T11:15:25.817Z,1.08
2023-03-06T11:18:25.935Z,0.90
2023-03-06T11:20:55.337Z,0.70
2023-03-06T11:23:47.354Z,0.85
2023-03-06T11:26:24.620Z,0.80
2023-03-06T11:29:00.298Z,0.70
2023-03-06T11:31:54.404Z,0.80
2023-03-06T11:34:56.375Z,0.63
2023-03-06T11:37:25.976Z,0.88
2023-03-06T11:40:12.272Z,0.73
2023-03-06T11:42:57.369Z,0.80
2023-03-06T11:45:45.249Z,0.82
2023-03-06T11:48:14.858Z,0.70
2023-03-06T11:50:42.729Z,0.80
2023-03-06T11:53:37.991Z,0.70
2023-03-06T11:56:10.447Z,0.60
2023-03-06T11:59:04.722Z,0.60
2023-03-06T12:01:57.652Z,0.65
2023-03-06T12:04:27.241Z,0.80
2023-03-06T12:07:12.205Z,0.70
2023-03-06T12:10:02.044Z,0.60
2023-03-06T12:12:53.758Z,0.80
2023-03-06T12:15:32.308Z,0.80
2023-03-06T12:18:26.795Z,0.70
2023-03-06T12:21:25.545Z,0.80
2023-03-06T12:24:01.887Z,0.77
2023-03-06T12:26:51.183Z,0.77
2023-03-06T12:29:40.526Z,0.80
2023-03-06T12:32:14.878Z,0.93
2023-03-06T12:34:41.589Z,1.00
2023-03-06T12:37:36.026Z,0.70
2023-03-06T12:40:34.907Z,0.70
2023-03-06T12:43:10.410Z,0.90
2023-03-06T12:45:38.264Z,0.73
2023-03-06T12:48:15.205Z,0.90
2023-03-06T12:50:44.535Z,1.13
2023-03-06T12:53:21.582Z,1.10
2023-03-06T12:55:49.778Z,1.20
2023-03-06T12:58:28.613Z,0.88
2023-03-06T13:01:36.833Z,1.13
2023-03-06T13:04:18.355Z,1.20
2023-03-06T13:06:55.030Z,1.30
2023-03-06T13:09:27.352Z,1.30
2023-03-06T13:12:08.377Z,1.60
2023-03-06T13:14:54.768Z,0.90
2023-03-06T13:17:26.423Z,1.45
2023-03-06T13:20:14.815Z,1.30
2023-03-06T13:22:46.661Z,1.25
2023-03-06T13:25:19.305Z,1.15
2023-03-06T13:27:53.324Z,1.13
2023-03-06T13:30:22.075Z,1.40
2023-03-06T13:32:52.953Z,1.10
2023-03-06T13:35:42.562Z,1.02
2023-03-06T13:38:37.672Z,1.00
2023-03-06T13:41:22.597Z,1.17
2023-03-06T13:43:56.872Z,1.05
2023-03-06T13:46:28.708Z,1.38
2023-03-06T13:49:10.636Z,1.63
2023-03-06T13:51:40.068Z,1.60
2023-03-06T13:54:43.982Z,1.45
2023-03-06T13:57:25.688Z,1.85
2023-03-06T14:00:09.480Z,2.03
2023-03-06T14:03:10.623Z,1.90
2023-03-06T14:08:24.884Z,1.42
2023-03-06T14:11:20.720Z,2.10
2023-03-06T14:13:54.357Z,1.90
2023-03-06T14:16:27.846Z,1.67
2023-03-06T14:18:57.242Z,1.48
2023-03-06T14:21:30.913Z,1.60
2023-03-06T14:24:00.641Z,1.70
2023-03-06T14:26:31.876Z,1.52
2023-03-06T14:29:00.558Z,1.40
2023-03-06T14:31:37.498Z,1.50
2023-03-06T14:34:14.100Z,1.40
2023-03-06T14:36:49.220Z,1.50
2023-03-06T14:39:23.439Z,1.60
2023-03-06T14:41:49.991Z,1.40
2023-03-06T14:44:21.933Z,1.20
2023-03-06T14:46:51.856Z,1.35
2023-03-06T14:49:20.642Z,1.17
2023-03-06T14:51:50.399Z,1.20
2023-03-06T14:54:24.817Z,1.05
2023-03-06T14:56:55.531Z,1.00
2023-03-06T14:59:26.692Z,1.00
2023-03-06T15:02:01.066Z,1.10
2023-03-06T15:04:45.925Z,0.90
2023-03-06T15:07:19.505Z,1.17
2023-03-06T15:09:50.246Z,1.20
2023-03-06T15:12:22.815Z,1.10
2023-03-06T15:15:03.725Z,1.23
2023-03-06T15:17:32.521Z,1.48
2023-03-06T15:20:01.118Z,1.42
2023-03-06T15:22:43.504Z,1.33
2023-03-06T15:25:24.187Z,1.23
2023-03-06T15:30:36.399Z,1.50
2023-03-06T15:33:21.886Z,1.13
2023-03-06T15:36:05.198Z,1.33
2023-03-06T15:38:34.041Z,1.70
2023-03-06T15:41:02.066Z,1.30
2023-03-06T15:43:34.909Z,1.17
2023-03-06T15:46:01.855Z,1.15
2023-03-06T15:48:28.904Z,1.23
2023-03-06T15:50:55.485Z,1.40
2023-03-06T15:53:22.091Z,1.45
2023-03-06T15:55:50.107Z,1.40
2023-03-06T15:58:20.646Z,1.48
2023-03-06T16:03:13.576Z,1.75
2023-03-06T16:05:40.128Z,1.58
2023-03-06T16:08:07.121Z,1.73
2023-03-06T16:10:39.049Z,1.67
2023-03-06T16:13:16.168Z,2.10
2023-03-06T16:15:50.328Z,1.38
2023-03-06T16:18:17.356Z,1.88
2023-03-06T16:20:43.983Z,1.42
2023-03-06T16:23:10.720Z,1.42
2023-03-06T16:25:39.959Z,1.67
2023-03-06T16:28:12.158Z,1.60
2023-03-06T16:30:38.922Z,2.08
2023-03-06T16:33:05.605Z,1.70
2023-03-06T16:35:32.360Z,1.50
2023-03-06T16:38:00.088Z,1.83
2023-03-06T16:40:37.688Z,1.30
2023-03-06T16:43:05.613Z,1.42
2023-03-06T16:45:36.491Z,1.60
2023-03-06T16:48:03.102Z,1.77
2023-03-06T16:50:33.089Z,1.70
2023-03-06T16:52:59.667Z,1.77
2023-03-06T16:55:27.313Z,2.00
2023-03-06T16:57:54.713Z,2.55
2023-03-06T17:00:24.555Z,1.45
2023-03-06T17:02:52.685Z,2.00
2023-03-06T17:05:19.914Z,2.13
2023-03-06T17:07:46.929Z,1.80
2023-03-06T17:10:15.723Z,1.70
2023-03-06T17:12:43.556Z,2.40
2023-03-06T17:15:11.380Z,1.80
2023-03-06T17:17:38.603Z,2.13
2023-03-06T17:20:08.107Z,1.95
2023-03-06T17:22:36.283Z,1.77
2023-03-06T17:25:05.131Z,2.30
2023-03-06T17:27:31.765Z,2.00
2023-03-06T17:29:58.898Z,2.53
2023-03-06T17:32:26.811Z,1.90
2023-03-06T17:34:54.573Z,1.65
2023-03-06T17:37:21.289Z,2.10
2023-03-06T17:39:48.016Z,1.52
2023-03-06T17:42:14.588Z,1.60
2023-03-06T17:44:41.766Z,1.75
2023-03-06T17:47:08.367Z,1.67
2023-03-06T17:49:34.887Z,1.80
2023-03-06T17:52:02.952Z,1.67
2023-03-06T17:54:30.163Z,1.77
2023-03-06T17:57:01.028Z,1.92
2023-03-06T17:59:28.631Z,1.52
2023-03-06T18:02:02.136Z,1.60
2023-03-06T18:04:28.977Z,1.38
2023-03-06T18:06:56.967Z,1.85
2023-03-06T18:09:24.063Z,1.40
2023-03-06T18:11:50.628Z,1.65
2023-03-06T18:14:17.159Z,1.25
2023-03-06T18:16:43.643Z,1.58
2023-03-06T18:19:11.233Z,1.38
2023-03-06T18:21:39.611Z,1.63
2023-03-06T18:24:06.905Z,1.73
2023-03-06T18:26:33.559Z,1.70
2023-03-06T18:29:04.329Z,1.65
2023-03-06T18:31:34.569Z,1.65
2023-03-06T18:34:03.699Z,1.80
2023-03-06T18:36:31.999Z,1.75
2023-03-06T18:38:59.271Z,1.88
2023-03-06T18:41:25.862Z,2.08
2023-03-06T18:43:54.522Z,1.40
2023-03-06T18:46:21.634Z,1.98
2023-03-06T18:48:48.636Z,1.65
2023-03-06T18:51:15.968Z,1.50
2023-03-06T18:53:43.598Z,1.48
2023-03-06T18:56:16.708Z,1.50
2023-03-06T18:58:43.992Z,1.80
2023-03-06T19:01:10.967Z,1.88
2023-03-06T19:03:37.662Z,1.98
2023-03-06T19:06:12.658Z,1.48
2023-03-06T19:08:40.398Z,1.63
2023-03-06T19:11:09.854Z,1.45
2023-03-06T19:13:36.454Z,1.40
2023-03-06T19:16:03.358Z,1.55
2023-03-06T19:18:30.405Z,1.80
2023-03-06T19:21:08.365Z,1.40
2023-03-06T19:23:35.130Z,1.60
2023-03-06T19:26:01.687Z,1.50
2023-03-06T19:28:28.477Z,1.40
2023-03-06T19:30:55.073Z,1.55
2023-03-06T19:33:21.725Z,1.40
2023-03-06T19:35:48.401Z,1.38
2023-03-06T19:38:15.561Z,1.13
2023-03-06T19:40:49.441Z,1.02
2023-03-06T19:43:16.038Z,1.00
2023-03-06T19:45:44.119Z,1.40
2023-03-06T19:48:12.546Z,1.20
2023-03-06T19:50:41.857Z,1.20
2023-03-06T19:53:08.466Z,1.30
2023-03-06T19:55:35.058Z,1.08
2023-03-06T19:58:01.875Z,1.08
2023-03-06T20:00:28.572Z,0.90
2023-03-06T20:02:55.512Z,1.20
2023-03-06T20:05:22.353Z,1.00
2023-03-06T20:07:49.555Z,0.93
2023-03-06T20:10:16.345Z,1.20
2023-03-06T20:12:42.895Z,0.98
2023-03-06T20:15:09.951Z,0.80
2023-03-06T20:17:39.792Z,0.90
2023-03-06T20:20:08.667Z,1.05
2023-03-06T20:22:35.328Z,0.90
2023-03-06T20:25:02.723Z,1.00
2023-03-06T20:27:29.249Z,1.15
2023-03-06T20:29:55.796Z,0.73
2023-03-06T20:32:22.346Z,0.85
2023-03-06T20:34:49.122Z,0.70
2023-03-06T20:37:15.761Z,0.80
2023-03-06T20:39:42.308Z,0.93
2023-03-06T20:42:08.842Z,0.90
2023-03-06T20:44:36.191Z,0.80
2023-03-06T20:47:02.738Z,0.90
2023-03-06T20:49:29.271Z,0.95
2023-03-06T20:51:56.668Z,0.70
2023-03-06T20:54:23.453Z,0.70
2023-03-06T20:56:50.466Z,0.90
2023-03-06T20:59:17.159Z,0.80
2023-03-06T21:01:45.516Z,1.00
2023-03-06T21:04:14.069Z,0.70
2023-03-06T21:06:45.272Z,0.90
2023-03-06T21:09:13.171Z,0.80
2023-03-06T21:11:40.128Z,0.70
2023-03-06T21:14:07.107Z,0.60
2023-03-06T21:16:33.767Z,0.85
2023-03-06T21:19:00.603Z,0.80
2023-03-06T21:21:32.859Z,0.88
2023-03-06T21:23:59.711Z,0.80
2023-03-06T21:26:29.140Z,0.52
2023-03-06T21:28:59.589Z,0.60
2023-03-06T21:31:28.379Z,1.00
2023-03-06T21:33:55.160Z,0.80
2023-03-06T21:36:22.547Z,0.50
2023-03-06T21:38:50.225Z,0.65
2023-03-06T21:41:24.822Z,0.77
2023-03-06T21:43:55.666Z,0.70
2023-03-06T21:46:22.505Z,0.60
2023-03-06T21:48:49.254Z,0.82
2023-03-06T21:51:23.406Z,0.60
2023-03-06T21:53:52.060Z,0.60
2023-03-06T21:56:20.716Z,0.60
2023-03-06T21:58:47.433Z,0.63
2023-03-06T22:01:19.744Z,0.63
2023-03-06T22:03:46.557Z,0.75
2023-03-06T22:06:16.318Z,0.63
2023-03-06T22:08:43.908Z,0.67
2023-03-06T22:11:13.404Z,0.60
2023-03-06T22:13:40.416Z,0.80
2023-03-06T22:16:07.814Z,0.68
2023-03-06T22:18:35.524Z,0.90
2023-03-06T22:21:10.353Z,0.68
2023-03-06T22:23:37.187Z,0.60
2023-03-06T22:26:10.349Z,0.50
2023-03-06T22:28:36.952Z,0.57
2023-03-06T22:31:18.608Z,0.52
2023-03-06T22:33:45.472Z,0.60
2023-03-06T22:36:14.336Z,0.68
2023-03-06T22:38:42.900Z,0.50
2023-03-06T22:41:10.681Z,0.65
2023-03-06T22:43:37.469Z,0.63
2023-03-06T22:46:09.546Z,0.73
2023-03-06T22:48:36.224Z,0.45
2023-03-06T22:51:09.354Z,0.52
2023-03-06T22:53:36.800Z,0.60
2023-03-06T22:56:06.344Z,0.60
2023-03-06T22:58:36.970Z,0.50
2023-03-06T23:01:05.926Z,0.52
2023-03-06T23:03:32.603Z,0.60
2023-03-06T23:05:59.148Z,0.50
2023-03-06T23:08:25.667Z,0.40
2023-03-06T23:10:52.287Z,0.65
2023-03-06T23:13:18.803Z,0.50
2023-03-06T23:15:45.354Z,0.60
2023-03-06T23:18:11.876Z,0.88
2023-03-06T23:20:44.856Z,0.57
2023-03-06T23:23:11.841Z,0.63
2023-03-06T23:25:38.974Z,0.52
2023-03-06T23:28:05.563Z,0.43
2023-03-06T23:30:32.043Z,0.68
2023-03-06T23:32:58.554Z,0.50
2023-03-06T23:35:25.587Z,0.45
2023-03-06T23:37:52.072Z,0.57
2023-03-06T23:40:18.579Z,0.60
2023-03-06T23:42:45.099Z,0.82
2023-03-06T23:45:11.948Z,0.55
2023-03-06T23:47:38.478Z,0.60
2023-03-06T23:50:05.395Z,0.55
2023-03-06T23:52:31.905Z,0.57
2023-03-06T23:54:58.399Z,0.50
2023-03-06T23:57:25.094Z,0.70
2023-03-06T23:59:51.645Z,0.60
